createdAt,value
2019-03-17T00:01:34.107Z,11.80
2019-03-17T00:04:04.214Z,13.50
2019-03-17T00:06:34.344Z,11.80
2019-03-17T00:09:08.732Z,12.80
2019-03-17T00:11:38.859Z,12.30
2019-03-17T00:14:08.891Z,13.40
2019-03-17T00:16:39.082Z,11.70
2019-03-17T00:19:09.127Z,11.00
2019-03-17T00:21:39.234Z,11.60
2019-03-17T00:24:09.401Z,10.80
2019-03-17T00:26:39.501Z,10.70
2019-03-17T00:29:09.561Z,11.40
2019-03-17T00:31:41.282Z,10.00
2019-03-17T00:34:11.684Z,11.50
2019-03-17T00:36:41.754Z,11.90
2019-03-17T00:39:14.109Z,11.80
2019-03-17T00:41:44.521Z,11.70
2019-03-17T00:44:14.660Z,12.00
2019-03-17T00:46:44.755Z,12.50
2019-03-17T00:49:14.833Z,12.10
2019-03-17T00:51:45.419Z,13.30
2019-03-17T00:54:15.526Z,13.50
2019-03-17T00:56:45.599Z,12.80
2019-03-17T00:59:15.668Z,13.10
2019-03-17T01:01:45.824Z,11.10
2019-03-17T01:04:15.907Z,12.60
2019-03-17T01:06:45.953Z,11.50
2019-03-17T01:09:16.394Z,12.30
2019-03-17T01:11:47.584Z,11.80
2019-03-17T01:14:17.647Z,13.70
2019-03-17T01:16:49.732Z,11.30
2019-03-17T01:19:19.829Z,11.90
2019-03-17T01:21:49.882Z,12.70
2019-03-17T01:24:22.300Z,12.30
2019-03-17T01:26:52.384Z,13.70
2019-03-17T01:29:22.549Z,14.20
2019-03-17T01:31:52.637Z,14.10
2019-03-17T01:34:22.757Z,13.30
2019-03-17T01:36:53.898Z,14.50
2019-03-17T01:39:23.989Z,13.20
2019-03-17T01:41:57.375Z,14.60
2019-03-17T01:44:27.491Z,14.00
2019-03-17T01:47:02.191Z,15.00
2019-03-17T01:49:32.234Z,15.10
2019-03-17T01:52:02.418Z,15.00
2019-03-17T01:54:33.956Z,14.60
2019-03-17T01:57:04.412Z,16.40
2019-03-17T01:59:35.158Z,16.30
2019-03-17T02:02:05.342Z,17.30
2019-03-17T02:04:36.693Z,18.10
2019-03-17T02:07:07.071Z,19.00
2019-03-17T02:09:37.149Z,19.70
2019-03-17T02:12:07.399Z,19.50
2019-03-17T02:14:42.017Z,20.90
2019-03-17T02:17:13.113Z,23.40
2019-03-17T02:19:43.215Z,25.10
2019-03-17T02:22:13.259Z,25.90
2019-03-17T02:24:43.343Z,27.00
2019-03-17T02:27:14.939Z,29.30
2019-03-17T02:29:45.037Z,30.00
2019-03-17T02:32:16.181Z,31.30
2019-03-17T02:34:46.415Z,32.60
2019-03-17T02:37:17.573Z,33.90
2019-03-17T02:39:47.897Z,36.30
2019-03-17T02:42:19.424Z,37.30
2019-03-17T02:44:49.505Z,37.70
2019-03-17T02:47:19.711Z,37.20
2019-03-17T02:49:54.551Z,37.70
2019-03-17T02:52:24.653Z,37.90
2019-03-17T02:54:54.748Z,36.10
2019-03-17T02:57:25.252Z,36.20
2019-03-17T02:59:55.360Z,35.70
2019-03-17T03:02:26.123Z,33.30
2019-03-17T03:04:56.237Z,30.90
2019-03-17T03:07:26.525Z,30.30
2019-03-17T03:09:56.596Z,29.50
2019-03-17T03:12:26.728Z,29.70
2019-03-17T03:14:57.102Z,28.80
2019-03-17T03:17:28.702Z,27.90
2019-03-17T03:19:58.744Z,27.80
2019-03-17T03:22:28.828Z,27.40
2019-03-17T03:24:59.336Z,26.80
2019-03-17T03:27:29.472Z,26.30
2019-03-17T03:29:59.572Z,25.70
2019-03-17T03:32:29.995Z,25.60
2019-03-17T03:35:00.766Z,26.40
2019-03-17T03:37:31.092Z,25.90
2019-03-17T03:40:01.209Z,24.00
2019-03-17T03:42:31.480Z,24.80
2019-03-17T03:45:01.779Z,24.30
2019-03-17T03:47:32.146Z,24.60
2019-03-17T03:50:02.240Z,24.60
2019-03-17T03:52:34.919Z,25.20
2019-03-17T03:55:05.376Z,24.00
2019-03-17T03:57:36.996Z,23.70
2019-03-17T04:00:09.788Z,23.60
2019-03-17T04:02:40.898Z,24.40
2019-03-17T04:05:12.156Z,25.50
2019-03-17T04:07:42.641Z,25.70
2019-03-17T04:10:15.263Z,25.20
2019-03-17T04:12:45.525Z,25.30
2019-03-17T04:15:15.566Z,24.60
2019-03-17T04:17:46.529Z,24.70
2019-03-17T04:20:16.598Z,24.10
2019-03-17T04:22:50.192Z,24.50
2019-03-17T04:25:20.297Z,22.30
2019-03-17T04:27:50.571Z,22.60
2019-03-17T04:30:20.640Z,22.80
2019-03-17T04:32:51.244Z,22.50
2019-03-17T04:35:21.420Z,23.30
2019-03-17T04:37:51.482Z,23.30
2019-03-17T04:40:21.966Z,24.20
2019-03-17T04:42:52.825Z,23.70
2019-03-17T04:45:23.075Z,23.70
2019-03-17T04:47:54.016Z,24.00
2019-03-17T04:50:24.105Z,25.80
2019-03-17T04:52:54.145Z,26.30
2019-03-17T04:55:24.276Z,25.30
2019-03-17T04:57:54.351Z,25.00
2019-03-17T05:00:24.424Z,25.10
2019-03-17T05:02:54.523Z,24.40
2019-03-17T05:05:24.590Z,24.80
2019-03-17T05:07:55.018Z,24.60
2019-03-17T05:10:25.072Z,25.10
2019-03-17T05:12:55.199Z,22.90
2019-03-17T05:15:25.639Z,23.20
2019-03-17T05:17:56.436Z,22.70
2019-03-17T05:20:28.215Z,22.00
2019-03-17T05:22:58.344Z,22.70
2019-03-17T05:25:28.768Z,22.70
2019-03-17T05:27:59.127Z,22.70
2019-03-17T05:30:29.272Z,21.40
2019-03-17T05:32:59.431Z,20.80
2019-03-17T05:35:29.491Z,21.10
2019-03-17T05:37:59.585Z,19.40
2019-03-17T05:40:29.673Z,20.20
2019-03-17T05:42:59.712Z,20.20
2019-03-17T05:45:35.572Z,21.10
2019-03-17T05:48:07.008Z,21.00
2019-03-17T05:50:37.857Z,20.50
2019-03-17T05:53:10.155Z,20.10
2019-03-17T05:55:40.214Z,20.00
2019-03-17T05:58:13.094Z,19.90
2019-03-17T06:00:43.171Z,19.30
2019-03-17T06:03:15.016Z,19.20
2019-03-17T06:05:47.190Z,18.90
2019-03-17T06:08:18.399Z,19.40
2019-03-17T06:10:48.508Z,18.50
2019-03-17T06:13:20.707Z,17.40
2019-03-17T06:15:50.821Z,18.10
2019-03-17T06:18:22.155Z,17.30
2019-03-17T06:20:53.121Z,16.80
2019-03-17T06:23:23.163Z,16.90
2019-03-17T06:25:53.776Z,16.60
2019-03-17T06:28:25.278Z,16.70
2019-03-17T06:30:55.505Z,16.40
2019-03-17T06:33:25.815Z,16.20
2019-03-17T06:35:58.656Z,16.70
2019-03-17T06:38:28.785Z,16.70
2019-03-17T06:40:59.823Z,17.60
2019-03-17T06:43:30.899Z,16.50
2019-03-17T06:46:00.959Z,15.70
2019-03-17T06:48:31.229Z,16.30
2019-03-17T06:51:01.288Z,15.60
2019-03-17T06:53:31.824Z,15.10
2019-03-17T06:56:03.046Z,16.30
2019-03-17T06:58:33.619Z,14.50
2019-03-17T07:01:06.091Z,13.40
2019-03-17T07:03:36.632Z,14.90
2019-03-17T07:06:06.683Z,13.70
2019-03-17T07:08:36.763Z,14.20
2019-03-17T07:11:10.933Z,13.50
2019-03-17T07:13:40.020Z,14.50
2019-03-17T07:16:11.508Z,13.20
2019-03-17T07:18:41.930Z,12.80
2019-03-17T07:21:14.687Z,12.90
2019-03-17T07:23:44.771Z,12.00
2019-03-17T07:26:19.107Z,12.00
2019-03-17T07:28:49.188Z,12.00
2019-03-17T07:31:19.312Z,12.10
2019-03-17T07:33:50.197Z,10.70
2019-03-17T07:36:20.306Z,11.30
2019-03-17T07:38:50.383Z,11.10
2019-03-17T07:41:23.773Z,10.50
2019-03-17T07:43:55.444Z,11.10
2019-03-17T07:46:25.491Z,9.30
2019-03-17T07:48:55.581Z,10.40
2019-03-17T07:51:27.968Z,9.80
2019-03-17T07:53:59.272Z,8.80
2019-03-17T07:56:29.415Z,8.40
2019-03-17T07:59:02.039Z,8.00
2019-03-17T08:01:32.137Z,9.80
2019-03-17T08:04:02.207Z,8.50
2019-03-17T08:06:33.788Z,7.10
2019-03-17T08:09:05.356Z,7.20
2019-03-17T08:11:35.463Z,6.40
2019-03-17T08:14:05.516Z,7.40
2019-03-17T08:16:35.619Z,6.60
2019-03-17T08:19:05.737Z,7.00
2019-03-17T08:21:37.702Z,7.80
2019-03-17T08:24:20.815Z,7.60
2019-03-17T08:27:16.783Z,7.10
2019-03-17T08:29:46.887Z,6.40
2019-03-17T08:32:22.619Z,6.40
2019-03-17T08:34:52.796Z,6.20
2019-03-17T08:37:22.868Z,5.20
2019-03-17T08:39:52.955Z,5.80
2019-03-17T08:42:24.032Z,5.80
2019-03-17T08:44:54.117Z,6.50
2019-03-17T08:47:25.169Z,6.40
2019-03-17T08:49:55.208Z,6.60
2019-03-17T08:52:25.717Z,5.60
2019-03-17T08:54:55.801Z,5.60
2019-03-17T08:57:25.857Z,5.70
2019-03-17T08:59:55.928Z,5.20
2019-03-17T09:02:26.588Z,5.30
2019-03-17T09:04:56.645Z,5.10
2019-03-17T09:07:27.898Z,4.00
2019-03-17T09:09:58.679Z,4.20
2019-03-17T09:12:28.764Z,4.60
2019-03-17T09:14:59.074Z,4.00
2019-03-17T09:17:30.609Z,4.00
2019-03-17T09:20:00.683Z,3.90
2019-03-17T09:22:34.245Z,4.10
2019-03-17T09:25:04.597Z,4.10
2019-03-17T09:27:35.051Z,3.50
2019-03-17T09:30:06.059Z,3.80
2019-03-17T09:32:37.456Z,4.10
2019-03-17T09:35:08.071Z,4.00
2019-03-17T09:37:40.091Z,4.40
2019-03-17T09:40:11.104Z,4.40
2019-03-17T09:42:41.205Z,4.90
2019-03-17T09:45:11.288Z,4.60
2019-03-17T09:47:41.866Z,5.00
2019-03-17T09:50:12.147Z,4.70
2019-03-17T09:52:42.257Z,5.20
2019-03-17T09:55:13.857Z,4.60
2019-03-17T09:57:43.928Z,5.30
2019-03-17T10:00:14.141Z,6.20
2019-03-17T10:02:44.460Z,4.90
2019-03-17T10:05:17.414Z,6.80
2019-03-17T10:07:47.922Z,5.60
2019-03-17T10:10:18.105Z,5.70
2019-03-17T10:12:48.183Z,6.40
2019-03-17T10:15:19.793Z,5.70
2019-03-17T10:17:49.970Z,5.60
2019-03-17T10:20:21.044Z,5.10
2019-03-17T10:22:51.108Z,5.50
2019-03-17T10:25:21.231Z,5.90
2019-03-17T10:27:51.435Z,5.80
2019-03-17T10:30:23.827Z,5.90
2019-03-17T10:33:01.724Z,6.40
2019-03-17T10:35:57.604Z,5.70
2019-03-17T10:38:44.953Z,7.00
2019-03-17T10:41:15.630Z,6.40
2019-03-17T10:44:05.124Z,5.70
2019-03-17T10:46:38.888Z,6.50
2019-03-17T10:49:09.047Z,5.40
2019-03-17T10:51:40.858Z,6.50
2019-03-17T10:54:15.030Z,6.40
2019-03-17T10:56:45.357Z,6.60
2019-03-17T10:59:17.772Z,7.20
2019-03-17T11:01:54.920Z,5.80
2019-03-17T11:04:27.112Z,5.50
2019-03-17T11:06:59.941Z,6.20
2019-03-17T11:09:32.853Z,6.00
2019-03-17T11:12:03.711Z,6.00
2019-03-17T11:14:33.842Z,5.20
2019-03-17T11:17:04.039Z,5.20
2019-03-17T11:19:35.297Z,6.00
2019-03-17T11:22:15.943Z,6.50
2019-03-17T11:24:56.212Z,6.50
2019-03-17T11:27:26.525Z,6.20
2019-03-17T11:30:01.493Z,6.50
2019-03-17T11:32:34.222Z,6.10
2019-03-17T11:35:04.901Z,6.30
2019-03-17T11:37:40.027Z,6.70
2019-03-17T11:40:12.235Z,6.90
2019-03-17T11:42:43.988Z,6.90
2019-03-17T11:45:14.663Z,6.90
2019-03-17T11:47:46.450Z,6.90
2019-03-17T11:50:16.655Z,5.70
2019-03-17T11:52:47.646Z,5.90
2019-03-17T11:55:18.496Z,5.60
2019-03-17T11:57:49.889Z,5.60
2019-03-17T12:00:22.005Z,6.30
2019-03-17T12:02:52.519Z,6.40
2019-03-17T12:05:23.108Z,6.80
2019-03-17T12:08:04.284Z,6.10
2019-03-17T12:10:39.558Z,6.80
2019-03-17T12:13:13.575Z,6.90
2019-03-17T12:15:43.704Z,6.40
2019-03-17T12:18:15.881Z,6.50
2019-03-17T12:20:46.059Z,6.70
2019-03-17T12:23:17.753Z,6.30
2019-03-17T12:25:48.102Z,6.40
2019-03-17T12:28:18.237Z,6.80
2019-03-17T12:30:49.296Z,7.00
2019-03-17T12:33:24.013Z,7.30
2019-03-17T12:35:56.231Z,7.10
2019-03-17T12:38:28.363Z,7.10
2019-03-17T12:41:07.167Z,7.90
2019-03-17T12:43:37.336Z,8.50
2019-03-17T12:46:14.435Z,8.00
2019-03-17T12:48:46.494Z,9.10
2019-03-17T12:51:19.569Z,9.00
2019-03-17T12:53:53.481Z,9.60
2019-03-17T12:56:24.003Z,10.10
2019-03-17T12:58:57.407Z,9.90
2019-03-17T13:01:34.271Z,10.70
2019-03-17T13:04:04.357Z,10.70
2019-03-17T13:06:37.755Z,10.70
2019-03-17T13:09:08.111Z,10.50
2019-03-17T13:11:39.734Z,11.40
2019-03-17T13:14:13.802Z,12.00
2019-03-17T13:16:58.529Z,11.90
2019-03-17T13:19:32.202Z,12.60
2019-03-17T13:22:03.326Z,13.20
2019-03-17T13:24:36.033Z,13.40
2019-03-17T13:27:08.232Z,13.80
2019-03-17T13:29:46.543Z,14.50
2019-03-17T13:32:38.111Z,14.50
2019-03-17T13:35:23.387Z,15.00
2019-03-17T13:37:54.949Z,15.40
2019-03-17T13:40:29.639Z,15.80
2019-03-17T13:43:00.976Z,16.30
2019-03-17T13:45:35.493Z,16.20
2019-03-17T13:48:10.927Z,17.10
2019-03-17T13:50:47.901Z,17.20
2019-03-17T13:53:22.986Z,17.40
2019-03-17T13:55:57.201Z,18.20
2019-03-17T13:58:35.060Z,28.90
2019-03-17T14:01:08.841Z,48.60
2019-03-17T14:03:42.323Z,49.10
2019-03-17T14:06:15.815Z,61.20
2019-03-17T14:08:53.338Z,64.20
2019-03-17T14:11:24.016Z,60.90
2019-03-17T14:13:56.197Z,60.20
2019-03-17T14:16:39.363Z,62.20
2019-03-17T14:19:10.373Z,59.00
2019-03-17T14:21:41.503Z,62.60
2019-03-17T14:24:13.262Z,60.70
2019-03-17T14:26:52.347Z,68.50
2019-03-17T14:29:36.043Z,65.90
2019-03-17T14:32:12.656Z,65.00
2019-03-17T14:34:45.500Z,67.30
2019-03-17T14:37:31.477Z,63.30
2019-03-17T14:40:15.861Z,66.40
2019-03-17T14:42:58.708Z,62.30
2019-03-17T14:45:38.734Z,65.40
2019-03-17T14:48:13.079Z,63.50
2019-03-17T14:51:07.275Z,59.70
2019-03-17T14:53:44.692Z,63.90
2019-03-17T14:56:22.556Z,63.20
2019-03-17T14:58:56.191Z,63.30
2019-03-17T15:01:31.913Z,60.80
2019-03-17T15:04:11.808Z,65.70
2019-03-17T15:06:46.240Z,68.90
2019-03-17T15:09:17.988Z,65.90
2019-03-17T15:11:48.189Z,68.80
2019-03-17T15:14:20.637Z,74.00
2019-03-17T15:16:52.331Z,78.60
2019-03-17T15:19:22.799Z,74.40
2019-03-17T15:21:52.885Z,78.00
2019-03-17T15:24:27.542Z,74.70
2019-03-17T15:27:05.442Z,77.60
2019-03-17T15:29:35.572Z,81.00
2019-03-17T15:32:11.528Z,77.90
2019-03-17T15:34:47.166Z,68.30
2019-03-17T15:37:21.191Z,81.20
2019-03-17T15:39:53.532Z,70.50
2019-03-17T15:42:24.065Z,75.30
2019-03-17T15:44:55.454Z,70.80
2019-03-17T15:47:28.422Z,74.50
2019-03-17T15:50:00.013Z,79.20
2019-03-17T15:52:30.552Z,77.80
2019-03-17T15:55:04.689Z,74.70
2019-03-17T15:57:37.163Z,78.60
2019-03-17T16:00:25.643Z,76.20
2019-03-17T16:03:05.461Z,73.30
2019-03-17T16:05:36.768Z,82.70
2019-03-17T16:08:10.875Z,79.70
2019-03-17T16:10:44.421Z,80.30
2019-03-17T16:13:18.040Z,79.00
2019-03-17T16:16:08.023Z,75.70
2019-03-17T16:18:59.696Z,81.80
2019-03-17T16:24:53.862Z,74.90
2019-03-17T16:27:56.486Z,75.50
2019-03-17T16:31:11.081Z,76.00
2019-03-17T16:37:03.103Z,72.90
2019-03-17T16:39:35.590Z,71.40
2019-03-17T16:42:13.363Z,70.10
2019-03-17T16:44:49.166Z,71.60
2019-03-17T16:47:50.393Z,70.90
2019-03-17T16:50:42.865Z,72.70
2019-03-17T16:53:15.746Z,74.60
2019-03-17T16:56:17.118Z,76.70
2019-03-17T16:58:54.679Z,75.10
2019-03-17T17:01:35.489Z,76.20
2019-03-17T17:04:11.919Z,74.70
2019-03-17T17:06:42.530Z,79.20
2019-03-17T17:09:47.885Z,78.50
2019-03-17T17:12:26.212Z,75.10
2019-03-17T17:15:09.507Z,78.40
2019-03-17T17:17:39.573Z,76.40
2019-03-17T17:20:14.365Z,74.80
2019-03-17T17:22:48.694Z,75.60
2019-03-17T17:25:22.396Z,74.40
2019-03-17T17:27:52.977Z,75.80
2019-03-17T17:30:23.175Z,73.70
2019-03-17T17:32:54.194Z,72.80
2019-03-17T17:35:27.653Z,75.00
2019-03-17T17:37:58.974Z,77.70
2019-03-17T17:40:30.993Z,74.80
2019-03-17T17:43:02.129Z,82.00
2019-03-17T17:45:40.261Z,81.40
2019-03-17T17:48:11.226Z,78.10
2019-03-17T17:50:43.576Z,68.30
2019-03-17T17:53:16.510Z,68.90
2019-03-17T17:55:50.803Z,67.70
2019-03-17T17:58:20.956Z,68.60
2019-03-17T18:00:54.933Z,67.30
2019-03-17T18:03:25.447Z,69.60
2019-03-17T18:06:02.553Z,69.10
2019-03-17T18:08:33.659Z,64.70
2019-03-17T18:11:03.768Z,71.50
2019-03-17T18:13:34.937Z,67.60
2019-03-17T18:16:05.052Z,67.70
2019-03-17T18:18:36.506Z,69.60
2019-03-17T18:21:09.019Z,66.70
2019-03-17T18:23:41.869Z,67.60
2019-03-17T18:26:13.308Z,65.50
2019-03-17T18:28:44.797Z,61.60
2019-03-17T18:31:14.999Z,62.80
2019-03-17T18:33:55.085Z,65.30
2019-03-17T18:36:26.757Z,64.50
2019-03-17T18:38:58.219Z,65.50
2019-03-17T18:41:30.723Z,64.70
2019-03-17T18:44:00.969Z,65.20
2019-03-17T18:46:31.324Z,62.60
2019-03-17T18:49:05.072Z,61.00
2019-03-17T18:51:37.921Z,64.20
2019-03-17T18:54:11.240Z,62.80
2019-03-17T18:56:52.881Z,67.30
2019-03-17T18:59:31.858Z,64.80
2019-03-17T19:02:09.749Z,63.50
2019-03-17T19:04:51.521Z,65.70
2019-03-17T19:07:26.622Z,63.90
2019-03-17T19:09:58.313Z,63.10
2019-03-17T19:12:44.606Z,59.80
2019-03-17T19:15:04.023Z,60.50
2019-03-17T19:17:37.415Z,62.30
2019-03-17T19:20:21.387Z,61.10
2019-03-17T19:22:58.806Z,62.00
2019-03-17T19:25:30.285Z,57.60
2019-03-17T19:28:12.409Z,61.10
2019-03-17T19:30:45.533Z,61.20
2019-03-17T19:33:19.535Z,58.50
2019-03-17T19:35:55.287Z,60.30
2019-03-17T19:38:25.948Z,61.80
2019-03-17T19:41:02.059Z,63.10
2019-03-17T19:43:32.568Z,63.80
2019-03-17T19:46:08.323Z,64.10
2019-03-17T19:48:39.111Z,59.30
2019-03-17T19:51:09.575Z,59.30
2019-03-17T19:53:41.667Z,58.10
2019-03-17T19:56:15.203Z,58.70
2019-03-17T19:58:45.279Z,56.50
2019-03-17T20:01:23.234Z,57.70
2019-03-17T20:03:57.278Z,55.40
2019-03-17T20:06:41.118Z,58.00
2019-03-17T20:09:16.319Z,57.20
2019-03-17T20:11:46.744Z,57.40
2019-03-17T20:14:17.378Z,56.70
2019-03-17T20:16:49.773Z,57.70
2019-03-17T20:19:24.989Z,57.60
2019-03-17T20:22:00.843Z,57.60
2019-03-17T20:24:31.722Z,55.90
2019-03-17T20:27:02.381Z,54.60
2019-03-17T20:29:33.671Z,57.70
2019-03-17T20:32:07.117Z,56.60
2019-03-17T20:34:38.211Z,55.40
2019-03-17T20:37:08.650Z,55.40
2019-03-17T20:39:54.428Z,56.80
2019-03-17T20:42:34.773Z,55.70
2019-03-17T20:45:05.719Z,56.20
2019-03-17T20:47:39.956Z,56.90
2019-03-17T20:50:12.780Z,55.70
2019-03-17T20:52:43.039Z,55.30
2019-03-17T20:55:13.409Z,56.00
2019-03-17T20:57:43.599Z,57.00
2019-03-17T21:00:15.829Z,57.40
2019-03-17T21:02:46.696Z,58.60
2019-03-17T21:05:17.077Z,61.50
2019-03-17T21:07:47.191Z,59.50
2019-03-17T21:10:19.512Z,57.80
2019-03-17T21:12:49.705Z,57.90
2019-03-17T21:15:20.465Z,59.00
2019-03-17T21:17:51.184Z,58.80
2019-03-17T21:20:21.327Z,58.20
2019-03-17T21:22:53.382Z,59.70
2019-03-17T21:25:35.092Z,60.00
2019-03-17T21:28:12.491Z,60.50
2019-03-17T21:30:43.597Z,64.30
2019-03-17T21:33:19.663Z,64.90
2019-03-17T21:36:08.481Z,63.80
2019-03-17T21:38:39.120Z,63.90
2019-03-17T21:41:10.438Z,64.10
2019-03-17T21:43:42.878Z,62.60
2019-03-17T21:46:17.889Z,63.50
2019-03-17T21:48:51.815Z,63.90
2019-03-17T21:51:23.681Z,60.50
2019-03-17T21:53:56.247Z,63.10
2019-03-17T21:56:26.497Z,63.80
2019-03-17T21:58:59.147Z,60.40
2019-03-17T22:01:33.048Z,63.10
2019-03-17T22:04:03.812Z,65.60
2019-03-17T22:06:37.239Z,66.90
2019-03-17T22:09:11.952Z,64.90
2019-03-17T22:11:49.706Z,65.30
2019-03-17T22:14:21.301Z,63.70
2019-03-17T22:16:51.419Z,66.40
2019-03-17T22:19:21.486Z,68.00
2019-03-17T22:21:53.875Z,67.10
2019-03-17T22:24:27.277Z,67.70
2019-03-17T22:26:58.827Z,67.50
2019-03-17T22:29:29.054Z,65.20
2019-03-17T22:31:59.902Z,67.30
2019-03-17T22:34:39.030Z,67.10
2019-03-17T22:37:09.926Z,67.90
2019-03-17T22:39:43.098Z,69.20
2019-03-17T22:42:15.058Z,68.70
2019-03-17T22:44:45.141Z,67.10
2019-03-17T22:47:16.964Z,66.30
2019-03-17T22:49:47.633Z,69.20
2019-03-17T22:52:20.521Z,68.70
2019-03-17T22:54:51.416Z,69.20
2019-03-17T22:57:22.573Z,65.90
2019-03-17T22:59:55.692Z,66.50
2019-03-17T23:02:26.173Z,65.50
2019-03-17T23:04:57.317Z,64.60
2019-03-17T23:07:28.827Z,64.70
2019-03-17T23:10:00.596Z,66.20
2019-03-17T23:12:38.985Z,63.60
2019-03-17T23:15:09.328Z,66.50
2019-03-17T23:17:39.480Z,64.10
2019-03-17T23:20:10.397Z,65.10
2019-03-17T23:22:41.306Z,66.60
2019-03-17T23:25:12.000Z,66.30
2019-03-17T23:27:44.615Z,67.80
2019-03-17T23:30:14.815Z,68.30
2019-03-17T23:32:48.861Z,69.40
2019-03-17T23:35:30.379Z,68.90
2019-03-17T23:38:04.341Z,68.90
2019-03-17T23:40:39.588Z,69.20
2019-03-17T23:43:10.904Z,69.40
2019-03-17T23:45:43.448Z,70.50
2019-03-17T23:48:15.034Z,71.10
2019-03-17T23:50:49.188Z,72.30
2019-03-17T23:53:22.461Z,71.90
2019-03-17T23:55:52.953Z,68.50
2019-03-17T23:58:28.179Z,70.10
